PWSweather.com
Personal Weather Stations
Station Observations
NAGEO265NE
Bedzin GrodziecPL 42-506

Bedzin GrodziecPL 42-506

Lat: 50.347, Lon: 19.079

Elevation: 948

Station Type: WH1080

http://www.meteo-grodziec.pl/

High Low Average
Temperature 30.6°F-0.8°C 14.5°F-9.7°C 23.8°F-4.6°C
Dew Point 28.2°F-2.1°C 11.7°F-11.3°C 20.5°F-6.4°C
Winds 5.0 mph 8.0 kmh Calm Calm 2.0 mph S3.2 kmh S
Wind Gusts 13.0 mph20.9 kmh -- 5.0 mph8.0 kmh
Humidity 94% 79% 87%
Pressure 30.16 in1021.3 mb 30.08 in1018.6 mb -
Precipitation 0.00 in0.0 mm - -
Hour Temp Dew Point Humidity Winds Wind Gusts Pressure Precip Precip Rate Daily Precip Total
12:00 AM 19.2°F-7.1°C 13.5°F-10.3°C 78% Calm Calm 2.0 mph3.2 kmh 30.16 in1021.3 mb 0.00 in0.0 mm 0.00 in0.0 mm 0.00 in0.0 mm
12:05 AM 19.0°F-7.2°C 13.3°F-10.4°C 78% Calm Calm 2.0 mph3.2 kmh 30.16 in1021.3 mb 0.00 in0.0 mm 0.00 in0.0 mm 0.00 in0.0 mm
12:10 AM 19.0°F-7.2°C 13.3°F-10.4°C 78% Calm Calm 2.0 mph3.2 kmh 30.16 in1021.3 mb 0.00 in0.0 mm 0.00 in0.0 mm 0.00 in0.0 mm
12:15 AM 19.0°F-7.2°C 13.3°F-10.4°C 78% Calm Calm 2.0 mph3.2 kmh 30.16 in1021.3 mb 0.00 in0.0 mm 0.00 in0.0 mm 0.00 in0.0 mm
12:20 AM 18.9°F-7.3°C 13.1°F-10.5°C 78% Calm Calm 1.0 mph1.6 kmh 30.16 in1021.3 mb 0.00 in0.0 mm 0.00 in0.0 mm 0.00 in0.0 mm
12:25 AM 18.9°F-7.3°C 13.5°F-10.3°C 79% Calm Calm 1.0 mph1.6 kmh 30.16 in1021.3 mb 0.00 in0.0 mm 0.00 in0.0 mm 0.00 in0.0 mm
12:30 AM 18.9°F-7.3°C 13.3°F-10.4°C 79% Calm Calm 1.0 mph1.6 kmh 30.16 in1021.3 mb 0.00 in0.0 mm 0.00 in0.0 mm 0.00 in0.0 mm
12:35 AM 18.7°F-7.4°C 13.3°F-10.4°C 79% Calm Calm 1.0 mph1.6 kmh 30.16 in1021.3 mb 0.00 in0.0 mm 0.00 in0.0 mm 0.00 in0.0 mm
12:40 AM 18.7°F-7.4°C 13.1°F-10.5°C 79% Calm Calm 1.0 mph1.6 kmh 30.16 in1021.3 mb 0.00 in0.0 mm 0.00 in0.0 mm 0.00 in0.0 mm
12:45 AM 18.3°F-7.6°C 13.3°F-10.4°C 80% Calm Calm 1.0 mph1.6 kmh 30.15 in1021.0 mb 0.00 in0.0 mm 0.00 in0.0 mm 0.00 in0.0 mm
12:50 AM 18.3°F-7.6°C 13.1°F-10.5°C 80% Calm Calm 2.0 mph3.2 kmh 30.16 in1021.3 mb 0.00 in0.0 mm 0.00 in0.0 mm 0.00 in0.0 mm
12:55 AM 18.1°F-7.7°C 13.1°F-10.5°C 80% Calm Calm 2.0 mph3.2 kmh 30.16 in1021.3 mb 0.00 in0.0 mm 0.00 in0.0 mm 0.00 in0.0 mm
01:00 AM 18.1°F-7.7°C 13.3°F-10.4°C 81% Calm Calm 1.0 mph1.6 kmh 30.16 in1021.3 mb 0.00 in0.0 mm 0.00 in0.0 mm 0.00 in0.0 mm
01:05 AM 18.1°F-7.7°C 13.3°F-10.4°C 81% Calm Calm -- 30.15 in1021.0 mb 0.00 in0.0 mm 0.00 in0.0 mm 0.00 in0.0 mm
01:10 AM 18.0°F-7.8°C 13.1°F-10.5°C 81% Calm Calm -- 30.16 in1021.3 mb 0.00 in0.0 mm 0.00 in0.0 mm 0.00 in0.0 mm
01:15 AM 17.8°F-7.9°C 12.9°F-10.6°C 81% Calm Calm -- 30.15 in1021.0 mb 0.00 in0.0 mm 0.00 in0.0 mm 0.00 in0.0 mm
01:20 AM 17.4°F-8.1°C 12.7°F-10.7°C 81% Calm Calm -- 30.16 in1021.3 mb 0.00 in0.0 mm 0.00 in0.0 mm 0.00 in0.0 mm
01:25 AM 17.2°F-8.2°C 12.7°F-10.7°C 82% Calm Calm -- 30.16 in1021.3 mb 0.00 in0.0 mm 0.00 in0.0 mm 0.00 in0.0 mm
01:30 AM 17.2°F-8.2°C 12.7°F-10.7°C 82% Calm Calm -- 30.16 in1021.3 mb 0.00 in0.0 mm 0.00 in0.0 mm 0.00 in0.0 mm
01:35 AM 17.2°F-8.2°C 13.1°F-10.5°C 83% Calm Calm -- 30.15 in1021.0 mb 0.00 in0.0 mm 0.00 in0.0 mm 0.00 in0.0 mm
01:40 AM 17.2°F-8.2°C 13.1°F-10.5°C 83% Calm Calm -- 30.16 in1021.3 mb 0.00 in0.0 mm 0.00 in0.0 mm 0.00 in0.0 mm
01:45 AM 17.2°F-8.2°C 12.9°F-10.6°C 83% Calm Calm -- 30.16 in1021.3 mb 0.00 in0.0 mm 0.00 in0.0 mm 0.00 in0.0 mm
01:50 AM 17.2°F-8.2°C 12.9°F-10.6°C 83% Calm Calm -- 30.16 in1021.3 mb 0.00 in0.0 mm 0.00 in0.0 mm 0.00 in0.0 mm
01:55 AM 17.2°F-8.2°C 12.9°F-10.6°C 83% Calm Calm -- 30.15 in1021.0 mb 0.00 in0.0 mm 0.00 in0.0 mm 0.00 in0.0 mm
02:00 AM 17.1°F-8.3°C 12.7°F-10.7°C 83% Calm Calm -- 30.15 in1021.0 mb 0.00 in0.0 mm 0.00 in0.0 mm 0.00 in0.0 mm
02:05 AM 17.1°F-8.3°C 12.7°F-10.7°C 83% Calm Calm -- 30.15 in1021.0 mb 0.00 in0.0 mm 0.00 in0.0 mm 0.00 in0.0 mm
02:10 AM 16.9°F-8.4°C 12.9°F-10.6°C 84% Calm Calm -- 30.15 in1021.0 mb 0.00 in0.0 mm 0.00 in0.0 mm 0.00 in0.0 mm
02:15 AM 16.9°F-8.4°C 12.9°F-10.6°C 84% Calm Calm -- 30.15 in1021.0 mb 0.00 in0.0 mm 0.00 in0.0 mm 0.00 in0.0 mm
02:20 AM 16.9°F-8.4°C 12.7°F-10.7°C 84% Calm Calm -- 30.14 in1020.7 mb 0.00 in0.0 mm 0.00 in0.0 mm 0.00 in0.0 mm
02:25 AM 16.9°F-8.4°C 12.7°F-10.7°C 84% Calm Calm -- 30.14 in1020.7 mb 0.00 in0.0 mm 0.00 in0.0 mm 0.00 in0.0 mm
02:30 AM 16.9°F-8.4°C 12.7°F-10.7°C 84% Calm Calm -- 30.14 in1020.7 mb 0.00 in0.0 mm 0.00 in0.0 mm 0.00 in0.0 mm
02:35 AM 16.7°F-8.5°C 12.7°F-10.7°C 84% Calm Calm -- 30.14 in1020.7 mb 0.00 in0.0 mm 0.00 in0.0 mm 0.00 in0.0 mm
02:40 AM 16.5°F-8.6°C 12.6°F-10.8°C 84% Calm Calm -- 30.14 in1020.7 mb 0.00 in0.0 mm 0.00 in0.0 mm 0.00 in0.0 mm
02:45 AM 16.3°F-8.7°C 12.4°F-10.9°C 84% Calm Calm -- 30.14 in1020.7 mb 0.00 in0.0 mm 0.00 in0.0 mm 0.00 in0.0 mm
02:50 AM 16.2°F-8.8°C 12.6°F-10.8°C 85% Calm Calm -- 30.14 in1020.7 mb 0.00 in0.0 mm 0.00 in0.0 mm 0.00 in0.0 mm
02:55 AM 16.2°F-8.8°C 12.4°F-10.9°C 85% Calm Calm -- 30.14 in1020.7 mb 0.00 in0.0 mm 0.00 in0.0 mm 0.00 in0.0 mm
03:00 AM 15.8°F-9.0°C 12.0°F-11.1°C 85% Calm Calm -- 30.14 in1020.7 mb 0.00 in0.0 mm 0.00 in0.0 mm 0.00 in0.0 mm
03:05 AM 15.6°F-9.1°C 12.0°F-11.1°C 85% Calm Calm -- 30.14 in1020.7 mb 0.00 in0.0 mm 0.00 in0.0 mm 0.00 in0.0 mm
03:10 AM 15.4°F-9.2°C 11.7°F-11.3°C 85% Calm Calm -- 30.14 in1020.7 mb 0.00 in0.0 mm 0.00 in0.0 mm 0.00 in0.0 mm
03:15 AM 15.4°F-9.2°C 12.0°F-11.1°C 86% Calm Calm -- 30.14 in1020.7 mb 0.00 in0.0 mm 0.00 in0.0 mm 0.00 in0.0 mm
03:20 AM 15.6°F-9.1°C 12.2°F-11.0°C 86% Calm Calm -- 30.14 in1020.7 mb 0.00 in0.0 mm 0.00 in0.0 mm 0.00 in0.0 mm
03:25 AM 15.6°F-9.1°C 12.2°F-11.0°C 86% Calm Calm -- 30.14 in1020.7 mb 0.00 in0.0 mm 0.00 in0.0 mm 0.00 in0.0 mm
03:30 AM 15.6°F-9.1°C 12.2°F-11.0°C 86% Calm Calm -- 30.13 in1020.3 mb 0.00 in0.0 mm 0.00 in0.0 mm 0.00 in0.0 mm
03:35 AM 15.6°F-9.1°C 12.2°F-11.0°C 86% Calm Calm -- 30.13 in1020.3 mb 0.00 in0.0 mm 0.00 in0.0 mm 0.00 in0.0 mm
03:40 AM 15.4°F-9.2°C 12.4°F-10.9°C 87% Calm Calm -- 30.13 in1020.3 mb 0.00 in0.0 mm 0.00 in0.0 mm 0.00 in0.0 mm
03:45 AM 15.4°F-9.2°C 12.4°F-10.9°C 87% Calm Calm -- 30.13 in1020.3 mb 0.00 in0.0 mm 0.00 in0.0 mm 0.00 in0.0 mm
03:50 AM 15.4°F-9.2°C 12.4°F-10.9°C 87% Calm Calm -- 30.13 in1020.3 mb 0.00 in0.0 mm 0.00 in0.0 mm 0.00 in0.0 mm
03:55 AM 15.4°F-9.2°C 12.2°F-11.0°C 87% Calm Calm -- 30.13 in1020.3 mb 0.00 in0.0 mm 0.00 in0.0 mm 0.00 in0.0 mm
04:00 AM 15.4°F-9.2°C 12.2°F-11.0°C 87% Calm Calm -- 30.13 in1020.3 mb 0.00 in0.0 mm 0.00 in0.0 mm 0.00 in0.0 mm
04:05 AM 15.3°F-9.3°C 12.2°F-11.0°C 87% Calm Calm -- 30.13 in1020.3 mb 0.00 in0.0 mm 0.00 in0.0 mm 0.00 in0.0 mm
04:10 AM 15.3°F-9.3°C 12.0°F-11.1°C 87% Calm Calm -- 30.13 in1020.3 mb 0.00 in0.0 mm 0.00 in0.0 mm 0.00 in0.0 mm
04:15 AM 15.3°F-9.3°C 12.0°F-11.1°C 87% Calm Calm -- 30.13 in1020.3 mb 0.00 in0.0 mm 0.00 in0.0 mm 0.00 in0.0 mm
04:20 AM 15.3°F-9.3°C 12.0°F-11.1°C 87% Calm Calm -- 30.13 in1020.3 mb 0.00 in0.0 mm 0.00 in0.0 mm 0.00 in0.0 mm
04:25 AM 15.3°F-9.3°C 12.0°F-11.1°C 87% Calm Calm -- 30.12 in1020.0 mb 0.00 in0.0 mm 0.00 in0.0 mm 0.00 in0.0 mm
04:30 AM 15.3°F-9.3°C 12.0°F-11.1°C 87% Calm Calm -- 30.12 in1020.0 mb 0.00 in0.0 mm 0.00 in0.0 mm 0.00 in0.0 mm
04:35 AM 15.3°F-9.3°C 12.2°F-11.0°C 88% Calm Calm -- 30.12 in1020.0 mb 0.00 in0.0 mm 0.00 in0.0 mm 0.00 in0.0 mm
04:40 AM 15.3°F-9.3°C 12.2°F-11.0°C 88% Calm Calm -- 30.12 in1020.0 mb 0.00 in0.0 mm 0.00 in0.0 mm 0.00 in0.0 mm
04:45 AM 15.3°F-9.3°C 12.2°F-11.0°C 88% Calm Calm -- 30.12 in1020.0 mb 0.00 in0.0 mm 0.00 in0.0 mm 0.00 in0.0 mm
04:50 AM 15.3°F-9.3°C 12.2°F-11.0°C 88% Calm Calm -- 30.12 in1020.0 mb 0.00 in0.0 mm 0.00 in0.0 mm 0.00 in0.0 mm
04:55 AM 15.3°F-9.3°C 12.2°F-11.0°C 88% Calm Calm -- 30.12 in1020.0 mb 0.00 in0.0 mm 0.00 in0.0 mm 0.00 in0.0 mm
05:00 AM 15.3°F-9.3°C 12.2°F-11.0°C 88% Calm Calm -- 30.12 in1020.0 mb 0.00 in0.0 mm 0.00 in0.0 mm 0.00 in0.0 mm
05:05 AM 15.1°F-9.4°C 12.0°F-11.1°C 88% Calm Calm -- 30.12 in1020.0 mb 0.00 in0.0 mm 0.00 in0.0 mm 0.00 in0.0 mm
05:10 AM 14.9°F-9.5°C 12.0°F-11.1°C 88% Calm Calm -- 30.12 in1020.0 mb 0.00 in0.0 mm 0.00 in0.0 mm 0.00 in0.0 mm
05:15 AM 14.7°F-9.6°C 11.8°F-11.2°C 88% Calm Calm -- 30.12 in1020.0 mb 0.00 in0.0 mm 0.00 in0.0 mm 0.00 in0.0 mm
05:20 AM 14.7°F-9.6°C 11.8°F-11.2°C 88% Calm Calm -- 30.12 in1020.0 mb 0.00 in0.0 mm 0.00 in0.0 mm 0.00 in0.0 mm
05:25 AM 14.7°F-9.6°C 11.8°F-11.2°C 88% Calm Calm -- 30.11 in1019.6 mb 0.00 in0.0 mm 0.00 in0.0 mm 0.00 in0.0 mm
05:30 AM 14.7°F-9.6°C 11.8°F-11.2°C 88% Calm Calm -- 30.12 in1020.0 mb 0.00 in0.0 mm 0.00 in0.0 mm 0.00 in0.0 mm
05:35 AM 14.7°F-9.6°C 11.8°F-11.2°C 88% Calm Calm -- 30.12 in1020.0 mb 0.00 in0.0 mm 0.00 in0.0 mm 0.00 in0.0 mm
05:40 AM 14.7°F-9.6°C 11.8°F-11.2°C 88% Calm Calm -- 30.12 in1020.0 mb 0.00 in0.0 mm 0.00 in0.0 mm 0.00 in0.0 mm
05:45 AM 14.7°F-9.6°C 11.8°F-11.2°C 88% Calm Calm -- 30.12 in1020.0 mb 0.00 in0.0 mm 0.00 in0.0 mm 0.00 in0.0 mm
05:50 AM 14.5°F-9.7°C 11.7°F-11.3°C 88% Calm Calm -- 30.12 in1020.0 mb 0.00 in0.0 mm 0.00 in0.0 mm 0.00 in0.0 mm
05:55 AM 14.5°F-9.7°C 11.7°F-11.3°C 88% Calm Calm -- 30.12 in1020.0 mb 0.00 in0.0 mm 0.00 in0.0 mm 0.00 in0.0 mm
06:00 AM 14.5°F-9.7°C 11.8°F-11.2°C 89% Calm Calm -- 30.12 in1020.0 mb 0.00 in0.0 mm 0.00 in0.0 mm 0.00 in0.0 mm
06:05 AM 14.5°F-9.7°C 11.8°F-11.2°C 89% Calm Calm -- 30.12 in1020.0 mb 0.00 in0.0 mm 0.00 in0.0 mm 0.00 in0.0 mm
06:10 AM 14.7°F-9.6°C 12.0°F-11.1°C 89% Calm Calm 1.0 mph1.6 kmh 30.12 in1020.0 mb 0.00 in0.0 mm 0.00 in0.0 mm 0.00 in0.0 mm
06:15 AM 14.7°F-9.6°C 12.2°F-11.0°C 89% Calm Calm 1.0 mph1.6 kmh 30.12 in1020.0 mb 0.00 in0.0 mm 0.00 in0.0 mm 0.00 in0.0 mm
06:20 AM 15.1°F-9.4°C 12.4°F-10.9°C 89% Calm Calm 2.0 mph3.2 kmh 30.12 in1020.0 mb 0.00 in0.0 mm 0.00 in0.0 mm 0.00 in0.0 mm
06:25 AM 15.3°F-9.3°C 12.6°F-10.8°C 89% Calm Calm 2.0 mph3.2 kmh 30.12 in1020.0 mb 0.00 in0.0 mm 0.00 in0.0 mm 0.00 in0.0 mm
06:30 AM 15.4°F-9.2°C 12.7°F-10.7°C 89% Calm Calm 2.0 mph3.2 kmh 30.11 in1019.6 mb 0.00 in0.0 mm 0.00 in0.0 mm 0.00 in0.0 mm
06:35 AM 15.4°F-9.2°C 12.9°F-10.6°C 89% Calm Calm 1.0 mph1.6 kmh 30.12 in1020.0 mb 0.00 in0.0 mm 0.00 in0.0 mm 0.00 in0.0 mm
06:40 AM 15.6°F-9.1°C 13.1°F-10.5°C 89% Calm Calm 1.0 mph1.6 kmh 30.12 in1020.0 mb 0.00 in0.0 mm 0.00 in0.0 mm 0.00 in0.0 mm
06:45 AM 15.8°F-9.0°C 13.1°F-10.5°C 89% Calm Calm 2.0 mph3.2 kmh 30.12 in1020.0 mb 0.00 in0.0 mm 0.00 in0.0 mm 0.00 in0.0 mm
06:50 AM 16.0°F-8.9°C 13.3°F-10.4°C 89% Calm Calm 2.0 mph3.2 kmh 30.12 in1020.0 mb 0.00 in0.0 mm 0.00 in0.0 mm 0.00 in0.0 mm
06:55 AM 16.2°F-8.8°C 13.5°F-10.3°C 89% Calm Calm 2.0 mph3.2 kmh 30.12 in1020.0 mb 0.00 in0.0 mm 0.00 in0.0 mm 0.00 in0.0 mm
07:00 AM 16.2°F-8.8°C 13.3°F-10.4°C 88% Calm Calm 2.0 mph3.2 kmh 30.12 in1020.0 mb 0.00 in0.0 mm 0.00 in0.0 mm 0.00 in0.0 mm
07:05 AM 16.3°F-8.7°C 13.3°F-10.4°C 88% Calm Calm 2.0 mph3.2 kmh 30.12 in1020.0 mb 0.00 in0.0 mm 0.00 in0.0 mm 0.00 in0.0 mm
07:10 AM 16.3°F-8.7°C 13.5°F-10.3°C 88% Calm Calm 1.0 mph1.6 kmh 30.12 in1020.0 mb 0.00 in0.0 mm 0.00 in0.0 mm 0.00 in0.0 mm
07:15 AM 16.5°F-8.6°C 13.6°F-10.2°C 88% Calm Calm 1.0 mph1.6 kmh 30.12 in1020.0 mb 0.00 in0.0 mm 0.00 in0.0 mm 0.00 in0.0 mm
07:20 AM 16.5°F-8.6°C 13.6°F-10.2°C 88% Calm Calm 1.0 mph1.6 kmh 30.12 in1020.0 mb 0.00 in0.0 mm 0.00 in0.0 mm 0.00 in0.0 mm
07:25 AM 16.5°F-8.6°C 13.6°F-10.2°C 88% Calm Calm 1.0 mph1.6 kmh 30.12 in1020.0 mb 0.00 in0.0 mm 0.00 in0.0 mm 0.00 in0.0 mm
07:30 AM 16.9°F-8.4°C 13.8°F-10.1°C 88% Calm Calm 1.0 mph1.6 kmh 30.12 in1020.0 mb 0.00 in0.0 mm 0.00 in0.0 mm 0.00 in0.0 mm
07:35 AM 16.9°F-8.4°C 14.0°F-10.0°C 88% Calm Calm 1.0 mph1.6 kmh 30.12 in1020.0 mb 0.00 in0.0 mm 0.00 in0.0 mm 0.00 in0.0 mm
07:40 AM 17.1°F-8.3°C 14.2°F-9.9°C 88% Calm Calm 1.0 mph1.6 kmh 30.12 in1020.0 mb 0.00 in0.0 mm 0.00 in0.0 mm 0.00 in0.0 mm
07:45 AM 17.2°F-8.2°C 14.4°F-9.8°C 88% Calm Calm 1.0 mph1.6 kmh 30.12 in1020.0 mb 0.00 in0.0 mm 0.00 in0.0 mm 0.00 in0.0 mm
07:50 AM 17.4°F-8.1°C 14.5°F-9.7°C 88% Calm Calm 1.0 mph1.6 kmh 30.12 in1020.0 mb 0.00 in0.0 mm 0.00 in0.0 mm 0.00 in0.0 mm
07:55 AM 17.4°F-8.1°C 14.5°F-9.7°C 88% Calm Calm 1.0 mph1.6 kmh 30.12 in1020.0 mb 0.00 in0.0 mm 0.00 in0.0 mm 0.00 in0.0 mm
08:00 AM 17.8°F-7.9°C 14.7°F-9.6°C 88% Calm Calm -- 30.12 in1020.0 mb 0.00 in0.0 mm 0.00 in0.0 mm 0.00 in0.0 mm
08:05 AM 18.0°F-7.8°C 14.9°F-9.5°C 88% Calm Calm -- 30.12 in1020.0 mb 0.00 in0.0 mm 0.00 in0.0 mm 0.00 in0.0 mm
08:10 AM 18.1°F-7.7°C 15.1°F-9.4°C 88% Calm Calm 1.0 mph1.6 kmh 30.12 in1020.0 mb 0.00 in0.0 mm 0.00 in0.0 mm 0.00 in0.0 mm
08:15 AM 18.3°F-7.6°C 15.3°F-9.3°C 88% Calm Calm 3.0 mph4.8 kmh 30.12 in1020.0 mb 0.00 in0.0 mm 0.00 in0.0 mm 0.00 in0.0 mm
08:20 AM 18.3°F-7.6°C 15.4°F-9.2°C 88% Calm Calm 3.0 mph4.8 kmh 30.12 in1020.0 mb 0.00 in0.0 mm 0.00 in0.0 mm 0.00 in0.0 mm
08:25 AM 18.7°F-7.4°C 15.4°F-9.2°C 87% 1.0 mph SSE1.6 kmh SSE 2.0 mph3.2 kmh 30.13 in1020.3 mb 0.00 in0.0 mm 0.00 in0.0 mm 0.00 in0.0 mm
08:30 AM 18.7°F-7.4°C 15.4°F-9.2°C 87% Calm Calm 2.0 mph3.2 kmh 30.13 in1020.3 mb 0.00 in0.0 mm 0.00 in0.0 mm 0.00 in0.0 mm
08:35 AM 18.9°F-7.3°C 15.6°F-9.1°C 87% Calm Calm 2.0 mph3.2 kmh 30.13 in1020.3 mb 0.00 in0.0 mm 0.00 in0.0 mm 0.00 in0.0 mm
08:40 AM 19.0°F-7.2°C 15.8°F-9.0°C 87% Calm Calm 2.0 mph3.2 kmh 30.12 in1020.0 mb 0.00 in0.0 mm 0.00 in0.0 mm 0.00 in0.0 mm
08:45 AM 19.0°F-7.2°C 15.6°F-9.1°C 86% 1.0 mph S1.6 kmh S 3.0 mph4.8 kmh 30.13 in1020.3 mb 0.00 in0.0 mm 0.00 in0.0 mm 0.00 in0.0 mm
08:50 AM 19.2°F-7.1°C 15.6°F-9.1°C 86% 1.0 mph S1.6 kmh S 3.0 mph4.8 kmh 30.13 in1020.3 mb 0.00 in0.0 mm 0.00 in0.0 mm 0.00 in0.0 mm
08:55 AM 19.4°F-7.0°C 16.0°F-8.9°C 86% 1.0 mph S1.6 kmh S 3.0 mph4.8 kmh 30.12 in1020.0 mb 0.00 in0.0 mm 0.00 in0.0 mm 0.00 in0.0 mm
09:00 AM 19.6°F-6.9°C 16.2°F-8.8°C 86% 1.0 mph S1.6 kmh S 2.0 mph3.2 kmh 30.12 in1020.0 mb 0.00 in0.0 mm 0.00 in0.0 mm 0.00 in0.0 mm
09:05 AM 19.8°F-6.8°C 16.3°F-8.7°C 86% Calm Calm 2.0 mph3.2 kmh 30.12 in1020.0 mb 0.00 in0.0 mm 0.00 in0.0 mm 0.00 in0.0 mm
09:10 AM 19.9°F-6.7°C 16.5°F-8.6°C 86% 1.0 mph S1.6 kmh S 2.0 mph3.2 kmh 30.12 in1020.0 mb 0.00 in0.0 mm 0.00 in0.0 mm 0.00 in0.0 mm
09:15 AM 20.1°F-6.6°C 16.7°F-8.5°C 86% Calm Calm 2.0 mph3.2 kmh 30.12 in1020.0 mb 0.00 in0.0 mm 0.00 in0.0 mm 0.00 in0.0 mm
09:20 AM 20.1°F-6.6°C 16.3°F-8.7°C 85% Calm Calm 3.0 mph4.8 kmh 30.12 in1020.0 mb 0.00 in0.0 mm 0.00 in0.0 mm 0.00 in0.0 mm
09:25 AM 20.5°F-6.4°C 16.5°F-8.6°C 85% 1.0 mph S1.6 kmh S 3.0 mph4.8 kmh 30.12 in1020.0 mb 0.00 in0.0 mm 0.00 in0.0 mm 0.00 in0.0 mm
09:30 AM 20.5°F-6.4°C 16.7°F-8.5°C 85% 1.0 mph S1.6 kmh S 3.0 mph4.8 kmh 30.12 in1020.0 mb 0.00 in0.0 mm 0.00 in0.0 mm 0.00 in0.0 mm
09:35 AM 20.8°F-6.2°C 17.2°F-8.2°C 86% 1.0 mph S1.6 kmh S 4.0 mph6.4 kmh 30.12 in1020.0 mb 0.00 in0.0 mm 0.00 in0.0 mm 0.00 in0.0 mm
09:40 AM 21.2°F-6.0°C 17.4°F-8.1°C 85% 1.0 mph SSW1.6 kmh SSW 4.0 mph6.4 kmh 30.12 in1020.0 mb 0.00 in0.0 mm 0.00 in0.0 mm 0.00 in0.0 mm
09:45 AM 21.6°F-5.8°C 17.6°F-8.0°C 85% 2.0 mph S3.2 kmh S 4.0 mph6.4 kmh 30.12 in1020.0 mb 0.00 in0.0 mm 0.00 in0.0 mm 0.00 in0.0 mm
09:50 AM 21.6°F-5.8°C 17.8°F-7.9°C 85% 2.0 mph S3.2 kmh S 4.0 mph6.4 kmh 30.12 in1020.0 mb 0.00 in0.0 mm 0.00 in0.0 mm 0.00 in0.0 mm
09:55 AM 21.9°F-5.6°C 17.8°F-7.9°C 84% 2.0 mph S3.2 kmh S 4.0 mph6.4 kmh 30.12 in1020.0 mb 0.00 in0.0 mm 0.00 in0.0 mm 0.00 in0.0 mm
10:00 AM 22.3°F-5.4°C 18.1°F-7.7°C 84% 1.0 mph S1.6 kmh S 3.0 mph4.8 kmh 30.12 in1020.0 mb 0.00 in0.0 mm 0.00 in0.0 mm 0.00 in0.0 mm
10:05 AM 22.5°F-5.3°C 18.3°F-7.6°C 84% 1.0 mph S1.6 kmh S 3.0 mph4.8 kmh 30.12 in1020.0 mb 0.00 in0.0 mm 0.00 in0.0 mm 0.00 in0.0 mm
10:10 AM 23.0°F-5.0°C 18.7°F-7.4°C 83% 2.0 mph S3.2 kmh S 4.0 mph6.4 kmh 30.12 in1020.0 mb 0.00 in0.0 mm 0.00 in0.0 mm 0.00 in0.0 mm
10:15 AM 23.4°F-4.8°C 18.7°F-7.4°C 82% 2.0 mph S3.2 kmh S 6.0 mph9.7 kmh 30.12 in1020.0 mb 0.00 in0.0 mm 0.00 in0.0 mm 0.00 in0.0 mm
10:20 AM 23.7°F-4.6°C 19.0°F-7.2°C 82% 1.0 mph SSW1.6 kmh SSW 6.0 mph9.7 kmh 30.12 in1020.0 mb 0.00 in0.0 mm 0.00 in0.0 mm 0.00 in0.0 mm
10:25 AM 24.1°F-4.4°C 19.0°F-7.2°C 81% 2.0 mph S3.2 kmh S 5.0 mph8.0 kmh 30.12 in1020.0 mb 0.00 in0.0 mm 0.00 in0.0 mm 0.00 in0.0 mm
10:30 AM 24.4°F-4.2°C 19.0°F-7.2°C 80% 2.0 mph SSW3.2 kmh SSW 5.0 mph8.0 kmh 30.12 in1020.0 mb 0.00 in0.0 mm 0.00 in0.0 mm 0.00 in0.0 mm
10:35 AM 24.6°F-4.1°C 19.4°F-7.0°C 80% 2.0 mph SSW3.2 kmh SSW 5.0 mph8.0 kmh 30.12 in1020.0 mb 0.00 in0.0 mm 0.00 in0.0 mm 0.00 in0.0 mm
10:40 AM 25.0°F-3.9°C 19.4°F-7.0°C 79% 2.0 mph SW3.2 kmh SW 5.0 mph8.0 kmh 30.11 in1019.6 mb 0.00 in0.0 mm 0.00 in0.0 mm 0.00 in0.0 mm
10:45 AM 25.3°F-3.7°C 19.8°F-6.8°C 79% 2.0 mph SW3.2 kmh SW 7.0 mph11.3 kmh 30.11 in1019.6 mb 0.00 in0.0 mm 0.00 in0.0 mm 0.00 in0.0 mm
10:50 AM 25.3°F-3.7°C 19.8°F-6.8°C 79% 2.0 mph SW3.2 kmh SW 7.0 mph11.3 kmh 30.11 in1019.6 mb 0.00 in0.0 mm 0.00 in0.0 mm 0.00 in0.0 mm
10:55 AM 25.5°F-3.6°C 19.9°F-6.7°C 79% 2.0 mph SW3.2 kmh SW 9.0 mph14.5 kmh 30.11 in1019.6 mb 0.00 in0.0 mm 0.00 in0.0 mm 0.00 in0.0 mm
11:00 AM 25.7°F-3.5°C 20.1°F-6.6°C 79% 4.0 mph SW6.4 kmh SW 11.0 mph17.7 kmh 30.10 in1019.3 mb 0.00 in0.0 mm 0.00 in0.0 mm 0.00 in0.0 mm
11:05 AM 26.1°F-3.3°C 20.3°F-6.5°C 79% 4.0 mph SW6.4 kmh SW 11.0 mph17.7 kmh 30.11 in1019.6 mb 0.00 in0.0 mm 0.00 in0.0 mm 0.00 in0.0 mm
11:10 AM 26.2°F-3.2°C 20.7°F-6.3°C 79% 3.0 mph SW4.8 kmh SW 7.0 mph11.3 kmh 30.10 in1019.3 mb 0.00 in0.0 mm 0.00 in0.0 mm 0.00 in0.0 mm
11:15 AM 26.4°F-3.1°C 20.8°F-6.2°C 79% 3.0 mph SW4.8 kmh SW 7.0 mph11.3 kmh 30.11 in1019.6 mb 0.00 in0.0 mm 0.00 in0.0 mm 0.00 in0.0 mm
11:20 AM 26.4°F-3.1°C 20.8°F-6.2°C 79% 3.0 mph SW4.8 kmh SW 11.0 mph17.7 kmh 30.10 in1019.3 mb 0.00 in0.0 mm 0.00 in0.0 mm 0.00 in0.0 mm
11:25 AM 26.4°F-3.1°C 20.8°F-6.2°C 79% 4.0 mph SW6.4 kmh SW 11.0 mph17.7 kmh 30.10 in1019.3 mb 0.00 in0.0 mm 0.00 in0.0 mm 0.00 in0.0 mm
11:30 AM 26.8°F-2.9°C 21.0°F-6.1°C 79% 4.0 mph SW6.4 kmh SW 10.0 mph16.1 kmh 30.10 in1019.3 mb 0.00 in0.0 mm 0.00 in0.0 mm 0.00 in0.0 mm
11:35 AM 26.8°F-2.9°C 21.2°F-6.0°C 79% 3.0 mph SW4.8 kmh SW 9.0 mph14.5 kmh 30.10 in1019.3 mb 0.00 in0.0 mm 0.00 in0.0 mm 0.00 in0.0 mm
11:40 AM 27.0°F-2.8°C 21.7°F-5.7°C 80% 3.0 mph SW4.8 kmh SW 9.0 mph14.5 kmh 30.10 in1019.3 mb 0.00 in0.0 mm 0.00 in0.0 mm 0.00 in0.0 mm
11:45 AM 27.1°F-2.7°C 21.4°F-5.9°C 79% 3.0 mph SW4.8 kmh SW 8.0 mph12.9 kmh 30.10 in1019.3 mb 0.00 in0.0 mm 0.00 in0.0 mm 0.00 in0.0 mm
11:50 AM 27.3°F-2.6°C 21.6°F-5.8°C 79% 3.0 mph SW4.8 kmh SW 8.0 mph12.9 kmh 30.09 in1019.0 mb 0.00 in0.0 mm 0.00 in0.0 mm 0.00 in0.0 mm
11:55 AM 27.5°F-2.5°C 21.9°F-5.6°C 79% 4.0 mph SW6.4 kmh SW 9.0 mph14.5 kmh 30.09 in1019.0 mb 0.00 in0.0 mm 0.00 in0.0 mm 0.00 in0.0 mm
12:00 PM 27.7°F-2.4°C 22.1°F-5.5°C 79% 4.0 mph SW6.4 kmh SW 10.0 mph16.1 kmh 30.09 in1019.0 mb 0.00 in0.0 mm 0.00 in0.0 mm 0.00 in0.0 mm
12:05 PM 27.9°F-2.3°C 22.3°F-5.4°C 79% 5.0 mph SW8.0 kmh SW 11.0 mph17.7 kmh 30.09 in1019.0 mb 0.00 in0.0 mm 0.00 in0.0 mm 0.00 in0.0 mm
12:10 PM 28.0°F-2.2°C 22.3°F-5.4°C 79% 5.0 mph SW8.0 kmh SW 11.0 mph17.7 kmh 30.09 in1019.0 mb 0.00 in0.0 mm 0.00 in0.0 mm 0.00 in0.0 mm
12:15 PM 28.2°F-2.1°C 22.5°F-5.3°C 79% 4.0 mph SW6.4 kmh SW 10.0 mph16.1 kmh 30.09 in1019.0 mb 0.00 in0.0 mm 0.00 in0.0 mm 0.00 in0.0 mm
12:20 PM 28.2°F-2.1°C 22.6°F-5.2°C 79% 4.0 mph SW6.4 kmh SW 9.0 mph14.5 kmh 30.09 in1019.0 mb 0.00 in0.0 mm 0.00 in0.0 mm 0.00 in0.0 mm
12:25 PM 28.2°F-2.1°C 22.6°F-5.2°C 79% 4.0 mph SW6.4 kmh SW 10.0 mph16.1 kmh 30.09 in1019.0 mb 0.00 in0.0 mm 0.00 in0.0 mm 0.00 in0.0 mm
12:30 PM 28.4°F-2.0°C 22.6°F-5.2°C 79% 5.0 mph SW8.0 kmh SW 10.0 mph16.1 kmh 30.09 in1019.0 mb 0.00 in0.0 mm 0.00 in0.0 mm 0.00 in0.0 mm
12:35 PM 28.2°F-2.1°C 22.6°F-5.2°C 79% 5.0 mph SW8.0 kmh SW 11.0 mph17.7 kmh 30.09 in1019.0 mb 0.00 in0.0 mm 0.00 in0.0 mm 0.00 in0.0 mm
12:40 PM 28.4°F-2.0°C 22.6°F-5.2°C 79% 5.0 mph SW8.0 kmh SW 11.0 mph17.7 kmh 30.08 in1018.6 mb 0.00 in0.0 mm 0.00 in0.0 mm 0.00 in0.0 mm
12:45 PM 28.6°F-1.9°C 22.8°F-5.1°C 79% 4.0 mph SW6.4 kmh SW 9.0 mph14.5 kmh 30.08 in1018.6 mb 0.00 in0.0 mm 0.00 in0.0 mm 0.00 in0.0 mm
12:50 PM 28.6°F-1.9°C 23.0°F-5.0°C 79% 3.0 mph SW4.8 kmh SW 8.0 mph12.9 kmh 30.09 in1019.0 mb 0.00 in0.0 mm 0.00 in0.0 mm 0.00 in0.0 mm
12:55 PM 28.8°F-1.8°C 23.2°F-4.9°C 79% 3.0 mph SW4.8 kmh SW 10.0 mph16.1 kmh 30.09 in1019.0 mb 0.00 in0.0 mm 0.00 in0.0 mm 0.00 in0.0 mm
01:00 PM 28.8°F-1.8°C 23.2°F-4.9°C 79% 4.0 mph SW6.4 kmh SW 10.0 mph16.1 kmh 30.09 in1019.0 mb 0.00 in0.0 mm 0.00 in0.0 mm 0.00 in0.0 mm
01:05 PM 28.8°F-1.8°C 23.2°F-4.9°C 79% 5.0 mph SW8.0 kmh SW 10.0 mph16.1 kmh 30.08 in1018.6 mb 0.00 in0.0 mm 0.00 in0.0 mm 0.00 in0.0 mm
01:10 PM 28.9°F-1.7°C 23.4°F-4.8°C 79% 5.0 mph SW8.0 kmh SW 10.0 mph16.1 kmh 30.08 in1018.6 mb 0.00 in0.0 mm 0.00 in0.0 mm 0.00 in0.0 mm
01:15 PM 29.1°F-1.6°C 23.4°F-4.8°C 79% 4.0 mph SW6.4 kmh SW 9.0 mph14.5 kmh 30.08 in1018.6 mb 0.00 in0.0 mm 0.00 in0.0 mm 0.00 in0.0 mm
01:20 PM 29.1°F-1.6°C 23.4°F-4.8°C 79% 4.0 mph SW6.4 kmh SW 11.0 mph17.7 kmh 30.08 in1018.6 mb 0.00 in0.0 mm 0.00 in0.0 mm 0.00 in0.0 mm
01:25 PM 29.1°F-1.6°C 23.5°F-4.7°C 79% 4.0 mph SW6.4 kmh SW 11.0 mph17.7 kmh 30.09 in1019.0 mb 0.00 in0.0 mm 0.00 in0.0 mm 0.00 in0.0 mm
01:30 PM 29.1°F-1.6°C 23.5°F-4.7°C 79% 4.0 mph SW6.4 kmh SW 10.0 mph16.1 kmh 30.09 in1019.0 mb 0.00 in0.0 mm 0.00 in0.0 mm 0.00 in0.0 mm
01:35 PM 29.1°F-1.6°C 23.5°F-4.7°C 79% 4.0 mph SW6.4 kmh SW 13.0 mph20.9 kmh 30.09 in1019.0 mb 0.00 in0.0 mm 0.00 in0.0 mm 0.00 in0.0 mm
01:40 PM 29.1°F-1.6°C 23.4°F-4.8°C 79% 5.0 mph SW8.0 kmh SW 13.0 mph20.9 kmh 30.09 in1019.0 mb 0.00 in0.0 mm 0.00 in0.0 mm 0.00 in0.0 mm
01:45 PM 29.1°F-1.6°C 23.4°F-4.8°C 79% 5.0 mph SW8.0 kmh SW 11.0 mph17.7 kmh 30.09 in1019.0 mb 0.00 in0.0 mm 0.00 in0.0 mm 0.00 in0.0 mm
01:50 PM 29.1°F-1.6°C 23.4°F-4.8°C 79% 4.0 mph SW6.4 kmh SW 9.0 mph14.5 kmh 30.09 in1019.0 mb 0.00 in0.0 mm 0.00 in0.0 mm 0.00 in0.0 mm
01:55 PM 28.9°F-1.7°C 23.5°F-4.7°C 80% 4.0 mph SW6.4 kmh SW 11.0 mph17.7 kmh 30.09 in1019.0 mb 0.00 in0.0 mm 0.00 in0.0 mm 0.00 in0.0 mm
02:00 PM 28.9°F-1.7°C 23.5°F-4.7°C 80% 5.0 mph SW8.0 kmh SW 12.0 mph19.3 kmh 30.09 in1019.0 mb 0.00 in0.0 mm 0.00 in0.0 mm 0.00 in0.0 mm
02:05 PM 28.8°F-1.8°C 23.5°F-4.7°C 81% 5.0 mph SW8.0 kmh SW 12.0 mph19.3 kmh 30.09 in1019.0 mb 0.00 in0.0 mm 0.00 in0.0 mm 0.00 in0.0 mm
02:10 PM 28.6°F-1.9°C 23.7°F-4.6°C 82% 3.0 mph SW4.8 kmh SW 9.0 mph14.5 kmh 30.09 in1019.0 mb 0.00 in0.0 mm 0.00 in0.0 mm 0.00 in0.0 mm
02:15 PM 28.6°F-1.9°C 23.7°F-4.6°C 82% 3.0 mph SW4.8 kmh SW 9.0 mph14.5 kmh 30.09 in1019.0 mb 0.00 in0.0 mm 0.00 in0.0 mm 0.00 in0.0 mm
02:20 PM 28.6°F-1.9°C 24.1°F-4.4°C 83% 3.0 mph SW4.8 kmh SW 9.0 mph14.5 kmh 30.09 in1019.0 mb 0.00 in0.0 mm 0.00 in0.0 mm 0.00 in0.0 mm
02:25 PM 28.4°F-2.0°C 23.9°F-4.5°C 83% 3.0 mph SW4.8 kmh SW 8.0 mph12.9 kmh 30.09 in1019.0 mb 0.00 in0.0 mm 0.00 in0.0 mm 0.00 in0.0 mm
02:30 PM 28.2°F-2.1°C 24.1°F-4.4°C 84% 3.0 mph SW4.8 kmh SW 8.0 mph12.9 kmh 30.09 in1019.0 mb 0.00 in0.0 mm 0.00 in0.0 mm 0.00 in0.0 mm
02:35 PM 28.2°F-2.1°C 24.1°F-4.4°C 84% 3.0 mph SW4.8 kmh SW 10.0 mph16.1 kmh 30.09 in1019.0 mb 0.00 in0.0 mm 0.00 in0.0 mm 0.00 in0.0 mm
02:40 PM 28.2°F-2.1°C 24.3°F-4.3°C 85% 4.0 mph SW6.4 kmh SW 10.0 mph16.1 kmh 30.09 in1019.0 mb 0.00 in0.0 mm 0.00 in0.0 mm 0.00 in0.0 mm
02:45 PM 28.0°F-2.2°C 24.1°F-4.4°C 85% 5.0 mph SW8.0 kmh SW 10.0 mph16.1 kmh 30.09 in1019.0 mb 0.00 in0.0 mm 0.00 in0.0 mm 0.00 in0.0 mm
02:50 PM 28.0°F-2.2°C 24.4°F-4.2°C 86% 3.0 mph SW4.8 kmh SW 6.0 mph9.7 kmh 30.09 in1019.0 mb 0.00 in0.0 mm 0.00 in0.0 mm 0.00 in0.0 mm
02:55 PM 28.0°F-2.2°C 24.4°F-4.2°C 86% 2.0 mph SW3.2 kmh SW 5.0 mph8.0 kmh 30.09 in1019.0 mb 0.00 in0.0 mm 0.00 in0.0 mm 0.00 in0.0 mm
03:00 PM 28.0°F-2.2°C 24.6°F-4.1°C 87% 2.0 mph SW3.2 kmh SW 6.0 mph9.7 kmh 30.09 in1019.0 mb 0.00 in0.0 mm 0.00 in0.0 mm 0.00 in0.0 mm
03:05 PM 27.9°F-2.3°C 24.6°F-4.1°C 87% 2.0 mph SW3.2 kmh SW 6.0 mph9.7 kmh 30.09 in1019.0 mb 0.00 in0.0 mm 0.00 in0.0 mm 0.00 in0.0 mm
03:10 PM 27.9°F-2.3°C 24.4°F-4.2°C 87% 2.0 mph SW3.2 kmh SW 6.0 mph9.7 kmh 30.09 in1019.0 mb 0.00 in0.0 mm 0.00 in0.0 mm 0.00 in0.0 mm
03:15 PM 27.9°F-2.3°C 24.8°F-4.0°C 88% 2.0 mph SW3.2 kmh SW 6.0 mph9.7 kmh 30.09 in1019.0 mb 0.00 in0.0 mm 0.00 in0.0 mm 0.00 in0.0 mm
03:20 PM 27.9°F-2.3°C 24.8°F-4.0°C 88% 3.0 mph SW4.8 kmh SW 8.0 mph12.9 kmh 30.09 in1019.0 mb 0.00 in0.0 mm 0.00 in0.0 mm 0.00 in0.0 mm
03:25 PM 27.9°F-2.3°C 24.6°F-4.1°C 87% 3.0 mph SW4.8 kmh SW 9.0 mph14.5 kmh 30.09 in1019.0 mb 0.00 in0.0 mm 0.00 in0.0 mm 0.00 in0.0 mm
03:30 PM 27.9°F-2.3°C 24.6°F-4.1°C 87% 4.0 mph SW6.4 kmh SW 9.0 mph14.5 kmh 30.09 in1019.0 mb 0.00 in0.0 mm 0.00 in0.0 mm 0.00 in0.0 mm
03:35 PM 28.0°F-2.2°C 24.6°F-4.1°C 87% 4.0 mph SW6.4 kmh SW 11.0 mph17.7 kmh 30.09 in1019.0 mb 0.00 in0.0 mm 0.00 in0.0 mm 0.00 in0.0 mm
03:40 PM 28.0°F-2.2°C 24.6°F-4.1°C 87% 4.0 mph SW6.4 kmh SW 11.0 mph17.7 kmh 30.09 in1019.0 mb 0.00 in0.0 mm 0.00 in0.0 mm 0.00 in0.0 mm
03:45 PM 27.9°F-2.3°C 24.8°F-4.0°C 88% 4.0 mph SW6.4 kmh SW 11.0 mph17.7 kmh 30.10 in1019.3 mb 0.00 in0.0 mm 0.00 in0.0 mm 0.00 in0.0 mm
03:50 PM 27.9°F-2.3°C 24.6°F-4.1°C 88% 4.0 mph SW6.4 kmh SW 8.0 mph12.9 kmh 30.09 in1019.0 mb 0.00 in0.0 mm 0.00 in0.0 mm 0.00 in0.0 mm
03:55 PM 27.9°F-2.3°C 24.8°F-4.0°C 88% 4.0 mph SW6.4 kmh SW 10.0 mph16.1 kmh 30.10 in1019.3 mb 0.00 in0.0 mm 0.00 in0.0 mm 0.00 in0.0 mm
04:00 PM 27.9°F-2.3°C 24.8°F-4.0°C 88% 4.0 mph SW6.4 kmh SW 10.0 mph16.1 kmh 30.10 in1019.3 mb 0.00 in0.0 mm 0.00 in0.0 mm 0.00 in0.0 mm
04:05 PM 27.9°F-2.3°C 24.8°F-4.0°C 88% 4.0 mph SW6.4 kmh SW 9.0 mph14.5 kmh 30.10 in1019.3 mb 0.00 in0.0 mm 0.00 in0.0 mm 0.00 in0.0 mm
04:10 PM 27.9°F-2.3°C 24.8°F-4.0°C 88% 3.0 mph SW4.8 kmh SW 8.0 mph12.9 kmh 30.10 in1019.3 mb 0.00 in0.0 mm 0.00 in0.0 mm 0.00 in0.0 mm
04:15 PM 28.0°F-2.2°C 25.0°F-3.9°C 88% 4.0 mph SW6.4 kmh SW 8.0 mph12.9 kmh 30.10 in1019.3 mb 0.00 in0.0 mm 0.00 in0.0 mm 0.00 in0.0 mm
04:20 PM 28.0°F-2.2°C 25.2°F-3.8°C 89% 4.0 mph SW6.4 kmh SW 12.0 mph19.3 kmh 30.10 in1019.3 mb 0.00 in0.0 mm 0.00 in0.0 mm 0.00 in0.0 mm
04:25 PM 28.0°F-2.2°C 25.2°F-3.8°C 89% 4.0 mph SW6.4 kmh SW 12.0 mph19.3 kmh 30.11 in1019.6 mb 0.00 in0.0 mm 0.00 in0.0 mm 0.00 in0.0 mm
04:30 PM 28.0°F-2.2°C 25.2°F-3.8°C 89% 3.0 mph SW4.8 kmh SW 10.0 mph16.1 kmh 30.11 in1019.6 mb 0.00 in0.0 mm 0.00 in0.0 mm 0.00 in0.0 mm
04:35 PM 28.0°F-2.2°C 25.2°F-3.8°C 89% 3.0 mph SW4.8 kmh SW 10.0 mph16.1 kmh 30.11 in1019.6 mb 0.00 in0.0 mm 0.00 in0.0 mm 0.00 in0.0 mm
04:40 PM 27.9°F-2.3°C 25.2°F-3.8°C 89% 4.0 mph SW6.4 kmh SW 10.0 mph16.1 kmh 30.11 in1019.6 mb 0.00 in0.0 mm 0.00 in0.0 mm 0.00 in0.0 mm
04:45 PM 27.9°F-2.3°C 25.2°F-3.8°C 89% 4.0 mph SW6.4 kmh SW 10.0 mph16.1 kmh 30.11 in1019.6 mb 0.00 in0.0 mm 0.00 in0.0 mm 0.00 in0.0 mm
04:50 PM 27.9°F-2.3°C 25.3°F-3.7°C 90% 3.0 mph SW4.8 kmh SW 9.0 mph14.5 kmh 30.11 in1019.6 mb 0.00 in0.0 mm 0.00 in0.0 mm 0.00 in0.0 mm
04:55 PM 27.9°F-2.3°C 25.3°F-3.7°C 90% 3.0 mph SW4.8 kmh SW 9.0 mph14.5 kmh 30.11 in1019.6 mb 0.00 in0.0 mm 0.00 in0.0 mm 0.00 in0.0 mm
05:00 PM 27.9°F-2.3°C 25.3°F-3.7°C 90% 3.0 mph SW4.8 kmh SW 9.0 mph14.5 kmh 30.11 in1019.6 mb 0.00 in0.0 mm 0.00 in0.0 mm 0.00 in0.0 mm
05:05 PM 27.9°F-2.3°C 25.3°F-3.7°C 90% 3.0 mph SW4.8 kmh SW 9.0 mph14.5 kmh 30.11 in1019.6 mb 0.00 in0.0 mm 0.00 in0.0 mm 0.00 in0.0 mm
05:10 PM 28.0°F-2.2°C 25.5°F-3.6°C 90% 3.0 mph SW4.8 kmh SW 9.0 mph14.5 kmh 30.11 in1019.6 mb 0.00 in0.0 mm 0.00 in0.0 mm 0.00 in0.0 mm
05:15 PM 28.0°F-2.2°C 25.7°F-3.5°C 91% 3.0 mph SW4.8 kmh SW 9.0 mph14.5 kmh 30.11 in1019.6 mb 0.00 in0.0 mm 0.00 in0.0 mm 0.00 in0.0 mm
05:20 PM 28.0°F-2.2°C 25.7°F-3.5°C 91% 3.0 mph SW4.8 kmh SW 7.0 mph11.3 kmh 30.11 in1019.6 mb 0.00 in0.0 mm 0.00 in0.0 mm 0.00 in0.0 mm
05:25 PM 28.0°F-2.2°C 25.7°F-3.5°C 91% 3.0 mph SW4.8 kmh SW 10.0 mph16.1 kmh 30.11 in1019.6 mb 0.00 in0.0 mm 0.00 in0.0 mm 0.00 in0.0 mm
05:30 PM 28.0°F-2.2°C 25.7°F-3.5°C 91% 3.0 mph SW4.8 kmh SW 10.0 mph16.1 kmh 30.11 in1019.6 mb 0.00 in0.0 mm 0.00 in0.0 mm 0.00 in0.0 mm
05:35 PM 28.0°F-2.2°C 26.1°F-3.3°C 92% 2.0 mph SW3.2 kmh SW 8.0 mph12.9 kmh 30.11 in1019.6 mb 0.00 in0.0 mm 0.00 in0.0 mm 0.00 in0.0 mm
05:40 PM 28.0°F-2.2°C 26.1°F-3.3°C 92% 3.0 mph SW4.8 kmh SW 8.0 mph12.9 kmh 30.10 in1019.3 mb 0.00 in0.0 mm 0.00 in0.0 mm 0.00 in0.0 mm
05:45 PM 28.0°F-2.2°C 26.1°F-3.3°C 92% 3.0 mph SW4.8 kmh SW 8.0 mph12.9 kmh 30.11 in1019.6 mb 0.00 in0.0 mm 0.00 in0.0 mm 0.00 in0.0 mm
05:50 PM 28.0°F-2.2°C 26.1°F-3.3°C 92% 3.0 mph SW4.8 kmh SW 9.0 mph14.5 kmh 30.11 in1019.6 mb 0.00 in0.0 mm 0.00 in0.0 mm 0.00 in0.0 mm
05:55 PM 28.0°F-2.2°C 26.1°F-3.3°C 92% 3.0 mph SW4.8 kmh SW 9.0 mph14.5 kmh 30.11 in1019.6 mb 0.00 in0.0 mm 0.00 in0.0 mm 0.00 in0.0 mm
06:00 PM 28.0°F-2.2°C 26.1°F-3.3°C 92% 3.0 mph SW4.8 kmh SW 8.0 mph12.9 kmh 30.11 in1019.6 mb 0.00 in0.0 mm 0.00 in0.0 mm 0.00 in0.0 mm
06:05 PM 28.2°F-2.1°C 26.2°F-3.2°C 92% 3.0 mph SW4.8 kmh SW 8.0 mph12.9 kmh 30.11 in1019.6 mb 0.00 in0.0 mm 0.00 in0.0 mm 0.00 in0.0 mm
06:10 PM 28.2°F-2.1°C 26.2°F-3.2°C 92% 3.0 mph SW4.8 kmh SW 8.0 mph12.9 kmh 30.11 in1019.6 mb 0.00 in0.0 mm 0.00 in0.0 mm 0.00 in0.0 mm
06:15 PM 28.2°F-2.1°C 26.2°F-3.2°C 92% 3.0 mph SW4.8 kmh SW 8.0 mph12.9 kmh 30.11 in1019.6 mb 0.00 in0.0 mm 0.00 in0.0 mm 0.00 in0.0 mm
06:20 PM 28.4°F-2.0°C 26.4°F-3.1°C 92% 4.0 mph SW6.4 kmh SW 9.0 mph14.5 kmh 30.11 in1019.6 mb 0.00 in0.0 mm 0.00 in0.0 mm 0.00 in0.0 mm
06:25 PM 28.4°F-2.0°C 26.1°F-3.3°C 91% 4.0 mph SW6.4 kmh SW 9.0 mph14.5 kmh 30.11 in1019.6 mb 0.00 in0.0 mm 0.00 in0.0 mm 0.00 in0.0 mm
06:30 PM 28.6°F-1.9°C 26.2°F-3.2°C 91% 3.0 mph SW4.8 kmh SW 8.0 mph12.9 kmh 30.11 in1019.6 mb 0.00 in0.0 mm 0.00 in0.0 mm 0.00 in0.0 mm
06:35 PM 28.6°F-1.9°C 26.2°F-3.2°C 91% 3.0 mph SW4.8 kmh SW 8.0 mph12.9 kmh 30.11 in1019.6 mb 0.00 in0.0 mm 0.00 in0.0 mm 0.00 in0.0 mm
06:40 PM 28.6°F-1.9°C 26.2°F-3.2°C 91% 3.0 mph SW4.8 kmh SW 8.0 mph12.9 kmh 30.11 in1019.6 mb 0.00 in0.0 mm 0.00 in0.0 mm 0.00 in0.0 mm
06:45 PM 28.6°F-1.9°C 26.2°F-3.2°C 91% 4.0 mph SW6.4 kmh SW 9.0 mph14.5 kmh 30.11 in1019.6 mb 0.00 in0.0 mm 0.00 in0.0 mm 0.00 in0.0 mm
06:50 PM 28.6°F-1.9°C 26.2°F-3.2°C 91% 4.0 mph SW6.4 kmh SW 10.0 mph16.1 kmh 30.11 in1019.6 mb 0.00 in0.0 mm 0.00 in0.0 mm 0.00 in0.0 mm
06:55 PM 28.6°F-1.9°C 26.2°F-3.2°C 91% 3.0 mph SW4.8 kmh SW 10.0 mph16.1 kmh 30.11 in1019.6 mb 0.00 in0.0 mm 0.00 in0.0 mm 0.00 in0.0 mm
07:00 PM 28.8°F-1.8°C 26.4°F-3.1°C 91% 4.0 mph SW6.4 kmh SW 10.0 mph16.1 kmh 30.11 in1019.6 mb 0.00 in0.0 mm 0.00 in0.0 mm 0.00 in0.0 mm
07:05 PM 28.8°F-1.8°C 26.4°F-3.1°C 91% 4.0 mph SW6.4 kmh SW 10.0 mph16.1 kmh 30.11 in1019.6 mb 0.00 in0.0 mm 0.00 in0.0 mm 0.00 in0.0 mm
07:10 PM 28.8°F-1.8°C 26.4°F-3.1°C 91% 3.0 mph SW4.8 kmh SW 9.0 mph14.5 kmh 30.11 in1019.6 mb 0.00 in0.0 mm 0.00 in0.0 mm 0.00 in0.0 mm
07:15 PM 28.8°F-1.8°C 26.4°F-3.1°C 91% 3.0 mph SW4.8 kmh SW 10.0 mph16.1 kmh 30.11 in1019.6 mb 0.00 in0.0 mm 0.00 in0.0 mm 0.00 in0.0 mm
07:20 PM 28.8°F-1.8°C 26.8°F-2.9°C 92% 3.0 mph SW4.8 kmh SW 10.0 mph16.1 kmh 30.11 in1019.6 mb 0.00 in0.0 mm 0.00 in0.0 mm 0.00 in0.0 mm
07:25 PM 28.8°F-1.8°C 26.8°F-2.9°C 92% 3.0 mph SW4.8 kmh SW 7.0 mph11.3 kmh 30.11 in1019.6 mb 0.00 in0.0 mm 0.00 in0.0 mm 0.00 in0.0 mm
07:30 PM 28.9°F-1.7°C 26.8°F-2.9°C 92% 3.0 mph SW4.8 kmh SW 7.0 mph11.3 kmh 30.11 in1019.6 mb 0.00 in0.0 mm 0.00 in0.0 mm 0.00 in0.0 mm
07:35 PM 28.9°F-1.7°C 26.8°F-2.9°C 92% 3.0 mph SW4.8 kmh SW 7.0 mph11.3 kmh 30.11 in1019.6 mb 0.00 in0.0 mm 0.00 in0.0 mm 0.00 in0.0 mm
07:40 PM 28.9°F-1.7°C 26.8°F-2.9°C 92% 3.0 mph SW4.8 kmh SW 7.0 mph11.3 kmh 30.11 in1019.6 mb 0.00 in0.0 mm 0.00 in0.0 mm 0.00 in0.0 mm
07:45 PM 28.9°F-1.7°C 27.1°F-2.7°C 93% 3.0 mph SW4.8 kmh SW 7.0 mph11.3 kmh 30.11 in1019.6 mb 0.00 in0.0 mm 0.00 in0.0 mm 0.00 in0.0 mm
07:50 PM 28.9°F-1.7°C 27.1°F-2.7°C 93% 3.0 mph SW4.8 kmh SW 6.0 mph9.7 kmh 30.11 in1019.6 mb 0.00 in0.0 mm 0.00 in0.0 mm 0.00 in0.0 mm
07:55 PM 28.9°F-1.7°C 27.1°F-2.7°C 93% 3.0 mph SW4.8 kmh SW 7.0 mph11.3 kmh 30.11 in1019.6 mb 0.00 in0.0 mm 0.00 in0.0 mm 0.00 in0.0 mm
08:00 PM 28.9°F-1.7°C 27.1°F-2.7°C 93% 3.0 mph SW4.8 kmh SW 7.0 mph11.3 kmh 30.11 in1019.6 mb 0.00 in0.0 mm 0.00 in0.0 mm 0.00 in0.0 mm
08:05 PM 28.9°F-1.7°C 27.1°F-2.7°C 93% 3.0 mph SW4.8 kmh SW 5.0 mph8.0 kmh 30.11 in1019.6 mb 0.00 in0.0 mm 0.00 in0.0 mm 0.00 in0.0 mm
08:10 PM 28.9°F-1.7°C 27.3°F-2.6°C 93% 2.0 mph SW3.2 kmh SW 5.0 mph8.0 kmh 30.11 in1019.6 mb 0.00 in0.0 mm 0.00 in0.0 mm 0.00 in0.0 mm
08:15 PM 28.9°F-1.7°C 27.3°F-2.6°C 93% 2.0 mph SW3.2 kmh SW 5.0 mph8.0 kmh 30.11 in1019.6 mb 0.00 in0.0 mm 0.00 in0.0 mm 0.00 in0.0 mm
08:20 PM 28.9°F-1.7°C 27.3°F-2.6°C 93% 2.0 mph SW3.2 kmh SW 5.0 mph8.0 kmh 30.11 in1019.6 mb 0.00 in0.0 mm 0.00 in0.0 mm 0.00 in0.0 mm
08:25 PM 28.9°F-1.7°C 27.3°F-2.6°C 93% 2.0 mph SW3.2 kmh SW 5.0 mph8.0 kmh 30.11 in1019.6 mb 0.00 in0.0 mm 0.00 in0.0 mm 0.00 in0.0 mm
08:30 PM 29.1°F-1.6°C 27.5°F-2.5°C 94% 3.0 mph SW4.8 kmh SW 8.0 mph12.9 kmh 30.11 in1019.6 mb 0.00 in0.0 mm 0.00 in0.0 mm 0.00 in0.0 mm
08:35 PM 29.1°F-1.6°C 27.5°F-2.5°C 94% 3.0 mph SW4.8 kmh SW 8.0 mph12.9 kmh 30.11 in1019.6 mb 0.00 in0.0 mm 0.00 in0.0 mm 0.00 in0.0 mm
08:40 PM 29.1°F-1.6°C 27.5°F-2.5°C 94% 2.0 mph SW3.2 kmh SW 4.0 mph6.4 kmh 30.11 in1019.6 mb 0.00 in0.0 mm 0.00 in0.0 mm 0.00 in0.0 mm
08:45 PM 29.1°F-1.6°C 27.7°F-2.4°C 94% 1.0 mph WSW1.6 kmh WSW 6.0 mph9.7 kmh 30.11 in1019.6 mb 0.00 in0.0 mm 0.00 in0.0 mm 0.00 in0.0 mm
08:50 PM 29.1°F-1.6°C 27.7°F-2.4°C 94% 2.0 mph SW3.2 kmh SW 8.0 mph12.9 kmh 30.11 in1019.6 mb 0.00 in0.0 mm 0.00 in0.0 mm 0.00 in0.0 mm
08:55 PM 29.1°F-1.6°C 27.7°F-2.4°C 94% 2.0 mph SW3.2 kmh SW 8.0 mph12.9 kmh 30.11 in1019.6 mb 0.00 in0.0 mm 0.00 in0.0 mm 0.00 in0.0 mm
09:00 PM 29.1°F-1.6°C 27.7°F-2.4°C 94% 3.0 mph SW4.8 kmh SW 8.0 mph12.9 kmh 30.10 in1019.3 mb 0.00 in0.0 mm 0.00 in0.0 mm 0.00 in0.0 mm
09:05 PM 29.3°F-1.5°C 27.9°F-2.3°C 94% 2.0 mph SW3.2 kmh SW 8.0 mph12.9 kmh 30.10 in1019.3 mb 0.00 in0.0 mm 0.00 in0.0 mm 0.00 in0.0 mm
09:10 PM 29.5°F-1.4°C 27.9°F-2.3°C 94% 2.0 mph SW3.2 kmh SW 4.0 mph6.4 kmh 30.10 in1019.3 mb 0.00 in0.0 mm 0.00 in0.0 mm 0.00 in0.0 mm
09:15 PM 29.5°F-1.4°C 27.9°F-2.3°C 94% 2.0 mph SW3.2 kmh SW 4.0 mph6.4 kmh 30.09 in1019.0 mb 0.00 in0.0 mm 0.00 in0.0 mm 0.00 in0.0 mm
09:20 PM 29.5°F-1.4°C 27.7°F-2.4°C 93% 1.0 mph SW1.6 kmh SW 3.0 mph4.8 kmh 30.09 in1019.0 mb 0.00 in0.0 mm 0.00 in0.0 mm 0.00 in0.0 mm
09:25 PM 29.5°F-1.4°C 27.7°F-2.4°C 93% 1.0 mph SW1.6 kmh SW 5.0 mph8.0 kmh 30.09 in1019.0 mb 0.00 in0.0 mm 0.00 in0.0 mm 0.00 in0.0 mm
09:30 PM 29.7°F-1.3°C 27.9°F-2.3°C 93% 1.0 mph SW1.6 kmh SW 5.0 mph8.0 kmh 30.09 in1019.0 mb 0.00 in0.0 mm 0.00 in0.0 mm 0.00 in0.0 mm
09:35 PM 29.7°F-1.3°C 27.9°F-2.3°C 93% 1.0 mph SW1.6 kmh SW 4.0 mph6.4 kmh 30.10 in1019.3 mb 0.00 in0.0 mm 0.00 in0.0 mm 0.00 in0.0 mm
09:40 PM 29.7°F-1.3°C 27.9°F-2.3°C 93% 1.0 mph SW1.6 kmh SW 4.0 mph6.4 kmh 30.09 in1019.0 mb 0.00 in0.0 mm 0.00 in0.0 mm 0.00 in0.0 mm
09:45 PM 29.7°F-1.3°C 27.9°F-2.3°C 93% 1.0 mph SW1.6 kmh SW 4.0 mph6.4 kmh 30.10 in1019.3 mb 0.00 in0.0 mm 0.00 in0.0 mm 0.00 in0.0 mm
09:50 PM 29.8°F-1.2°C 28.0°F-2.2°C 93% 1.0 mph SW1.6 kmh SW 4.0 mph6.4 kmh 30.09 in1019.0 mb 0.00 in0.0 mm 0.00 in0.0 mm 0.00 in0.0 mm
09:55 PM 29.8°F-1.2°C 28.0°F-2.2°C 93% 1.0 mph SW1.6 kmh SW 5.0 mph8.0 kmh 30.10 in1019.3 mb 0.00 in0.0 mm 0.00 in0.0 mm 0.00 in0.0 mm
10:00 PM 29.8°F-1.2°C 27.9°F-2.3°C 92% 1.0 mph SW1.6 kmh SW 5.0 mph8.0 kmh 30.10 in1019.3 mb 0.00 in0.0 mm 0.00 in0.0 mm 0.00 in0.0 mm
10:05 PM 30.0°F-1.1°C 28.0°F-2.2°C 92% 2.0 mph SW3.2 kmh SW 7.0 mph11.3 kmh 30.10 in1019.3 mb 0.00 in0.0 mm 0.00 in0.0 mm 0.00 in0.0 mm
10:10 PM 30.0°F-1.1°C 28.0°F-2.2°C 92% 2.0 mph SW3.2 kmh SW 7.0 mph11.3 kmh 30.10 in1019.3 mb 0.00 in0.0 mm 0.00 in0.0 mm 0.00 in0.0 mm
10:15 PM 30.0°F-1.1°C 28.0°F-2.2°C 92% 1.0 mph SW1.6 kmh SW 5.0 mph8.0 kmh 30.10 in1019.3 mb 0.00 in0.0 mm 0.00 in0.0 mm 0.00 in0.0 mm
10:20 PM 30.0°F-1.1°C 28.0°F-2.2°C 92% 1.0 mph SW1.6 kmh SW 4.0 mph6.4 kmh 30.09 in1019.0 mb 0.00 in0.0 mm 0.00 in0.0 mm 0.00 in0.0 mm
10:25 PM 30.0°F-1.1°C 28.0°F-2.2°C 92% 1.0 mph SW1.6 kmh SW 4.0 mph6.4 kmh 30.09 in1019.0 mb 0.00 in0.0 mm 0.00 in0.0 mm 0.00 in0.0 mm
10:30 PM 30.2°F-1.0°C 28.2°F-2.1°C 92% 2.0 mph SW3.2 kmh SW 8.0 mph12.9 kmh 30.09 in1019.0 mb 0.00 in0.0 mm 0.00 in0.0 mm 0.00 in0.0 mm
10:35 PM 30.2°F-1.0°C 28.2°F-2.1°C 92% 1.0 mph SW1.6 kmh SW 8.0 mph12.9 kmh 30.09 in1019.0 mb 0.00 in0.0 mm 0.00 in0.0 mm 0.00 in0.0 mm
10:40 PM 30.2°F-1.0°C 28.2°F-2.1°C 92% 1.0 mph SW1.6 kmh SW 4.0 mph6.4 kmh 30.09 in1019.0 mb 0.00 in0.0 mm 0.00 in0.0 mm 0.00 in0.0 mm
10:45 PM 30.2°F-1.0°C 27.9°F-2.3°C 91% 1.0 mph SW1.6 kmh SW 4.0 mph6.4 kmh 30.09 in1019.0 mb 0.00 in0.0 mm 0.00 in0.0 mm 0.00 in0.0 mm
10:50 PM 30.4°F-0.9°C 28.0°F-2.2°C 91% 1.0 mph SW1.6 kmh SW 5.0 mph8.0 kmh 30.10 in1019.3 mb 0.00 in0.0 mm 0.00 in0.0 mm 0.00 in0.0 mm
10:55 PM 30.4°F-0.9°C 28.0°F-2.2°C 91% 2.0 mph SW3.2 kmh SW 6.0 mph9.7 kmh 30.10 in1019.3 mb 0.00 in0.0 mm 0.00 in0.0 mm 0.00 in0.0 mm
11:00 PM 30.4°F-0.9°C 28.0°F-2.2°C 91% 2.0 mph SW3.2 kmh SW 6.0 mph9.7 kmh 30.10 in1019.3 mb 0.00 in0.0 mm 0.00 in0.0 mm 0.00 in0.0 mm
11:05 PM 30.4°F-0.9°C 28.0°F-2.2°C 91% 2.0 mph SW3.2 kmh SW 6.0 mph9.7 kmh 30.10 in1019.3 mb 0.00 in0.0 mm 0.00 in0.0 mm 0.00 in0.0 mm
11:10 PM 30.4°F-0.9°C 28.0°F-2.2°C 91% 2.0 mph SW3.2 kmh SW 5.0 mph8.0 kmh 30.10 in1019.3 mb 0.00 in0.0 mm 0.00 in0.0 mm 0.00 in0.0 mm
11:15 PM 30.4°F-0.9°C 28.0°F-2.2°C 91% 1.0 mph SW1.6 kmh SW 5.0 mph8.0 kmh 30.10 in1019.3 mb 0.00 in0.0 mm 0.00 in0.0 mm 0.00 in0.0 mm
11:20 PM 30.4°F-0.9°C 28.0°F-2.2°C 91% 1.0 mph SW1.6 kmh SW 5.0 mph8.0 kmh 30.10 in1019.3 mb 0.00 in0.0 mm 0.00 in0.0 mm 0.00 in0.0 mm
11:25 PM 30.4°F-0.9°C 28.0°F-2.2°C 91% 2.0 mph SW3.2 kmh SW 7.0 mph11.3 kmh 30.09 in1019.0 mb 0.00 in0.0 mm 0.00 in0.0 mm 0.00 in0.0 mm
11:30 PM 30.6°F-0.8°C 28.2°F-2.1°C 91% 2.0 mph SW3.2 kmh SW 7.0 mph11.3 kmh 30.10 in1019.3 mb 0.00 in0.0 mm 0.00 in0.0 mm 0.00 in0.0 mm
11:35 PM 30.6°F-0.8°C 28.2°F-2.1°C 91% 3.0 mph SW4.8 kmh SW 7.0 mph11.3 kmh 30.09 in1019.0 mb 0.00 in0.0 mm 0.00 in0.0 mm 0.00 in0.0 mm
11:40 PM 30.6°F-0.8°C 28.2°F-2.1°C 91% 2.0 mph SW3.2 kmh SW 7.0 mph11.3 kmh 30.10 in1019.3 mb 0.00 in0.0 mm 0.00 in0.0 mm 0.00 in0.0 mm
11:45 PM 30.6°F-0.8°C 28.2°F-2.1°C 91% 2.0 mph SW3.2 kmh SW 7.0 mph11.3 kmh 30.10 in1019.3 mb 0.00 in0.0 mm 0.00 in0.0 mm 0.00 in0.0 mm
11:50 PM 30.6°F-0.8°C 28.2°F-2.1°C 91% 2.0 mph SW3.2 kmh SW 8.0 mph12.9 kmh 30.09 in1019.0 mb 0.00 in0.0 mm 0.00 in0.0 mm 0.00 in0.0 mm
11:55 PM 30.6°F-0.8°C 28.2°F-2.1°C 91% 2.0 mph SW3.2 kmh SW 8.0 mph12.9 kmh 30.09 in1019.0 mb 0.00 in0.0 mm 0.00 in0.0 mm 0.00 in0.0 mm